createdAt,value
2022-12-09T00:01:13.499Z,4.10
2022-12-09T00:03:41.177Z,4.10
2022-12-09T00:06:23.482Z,3.90
2022-12-09T00:08:51.282Z,3.80
2022-12-09T00:11:20.321Z,3.70
2022-12-09T00:13:52.351Z,3.60
2022-12-09T00:16:20.376Z,3.50
2022-12-09T00:18:47.979Z,3.60
2022-12-09T00:21:19.827Z,3.60
2022-12-09T00:23:47.600Z,3.60
2022-12-09T00:26:15.420Z,3.60
2022-12-09T00:28:43.160Z,3.70
2022-12-09T00:31:14.261Z,3.70
2022-12-09T00:33:41.626Z,3.70
2022-12-09T00:36:16.162Z,3.60
2022-12-09T00:38:43.950Z,3.70
2022-12-09T00:41:11.816Z,3.60
2022-12-09T00:43:39.186Z,3.60
2022-12-09T00:46:06.618Z,3.60
2022-12-09T00:48:40.284Z,3.60
2022-12-09T00:51:08.808Z,3.50
2022-12-09T00:53:35.891Z,3.50
2022-12-09T00:56:03.243Z,3.40
2022-12-09T00:58:30.311Z,3.30
2022-12-09T01:00:57.580Z,3.30
2022-12-09T01:03:25.195Z,3.40
2022-12-09T01:05:52.588Z,3.50
2022-12-09T01:08:19.823Z,3.50
2022-12-09T01:10:47.754Z,3.50
2022-12-09T01:13:15.872Z,3.60
2022-12-09T01:15:43.310Z,3.60
2022-12-09T01:18:12.224Z,3.60
2022-12-09T01:20:39.524Z,3.60
2022-12-09T01:23:06.609Z,3.50
2022-12-09T01:25:33.712Z,3.50
2022-12-09T01:28:01.045Z,3.50
2022-12-09T01:30:28.431Z,3.40
2022-12-09T01:32:55.550Z,3.30
2022-12-09T01:35:22.897Z,3.30
2022-12-09T01:37:50.151Z,3.30
2022-12-09T01:40:19.074Z,3.20
2022-12-09T01:42:46.432Z,3.20
2022-12-09T01:45:22.451Z,3.20
2022-12-09T01:47:57.260Z,3.20
2022-12-09T01:50:26.635Z,3.30
2022-12-09T01:52:55.756Z,3.30
2022-12-09T01:55:25.228Z,3.20
2022-12-09T01:57:53.119Z,3.20
2022-12-09T02:00:21.606Z,3.20
2022-12-09T02:02:52.301Z,3.10
2022-12-09T02:05:21.270Z,3.10
2022-12-09T02:07:54.416Z,3.10
2022-12-09T02:10:22.106Z,3.20
2022-12-09T02:13:25.061Z,3.20
2022-12-09T02:15:59.100Z,3.20
2022-12-09T02:18:42.281Z,3.20
2022-12-09T02:21:19.203Z,3.20
2022-12-09T02:24:04.292Z,3.20
2022-12-09T02:26:41.939Z,3.30
2022-12-09T02:29:51.153Z,3.30
2022-12-09T02:32:27.333Z,3.40
2022-12-09T02:35:10.203Z,3.40
2022-12-09T02:38:10.700Z,3.40
2022-12-09T02:41:06.972Z,3.40
2022-12-09T02:43:48.063Z,3.30
2022-12-09T02:46:21.083Z,3.40
2022-12-09T02:48:53.525Z,3.40
2022-12-09T02:51:22.842Z,3.40
2022-12-09T02:53:54.893Z,3.30
2022-12-09T02:56:24.293Z,3.20
2022-12-09T02:58:51.616Z,3.20
2022-12-09T03:01:36.874Z,3.20
2022-12-09T03:04:07.265Z,3.20
2022-12-09T03:06:43.272Z,3.20
2022-12-09T03:09:16.016Z,3.10
2022-12-09T03:11:43.832Z,3.10
2022-12-09T03:14:16.549Z,3.10
2022-12-09T03:17:07.331Z,3.10
2022-12-09T03:19:45.904Z,3.10
2022-12-09T03:22:17.339Z,3.10
2022-12-09T03:25:27.700Z,3.20
2022-12-09T03:28:02.969Z,3.20
2022-12-09T03:30:37.855Z,3.20
2022-12-09T03:33:05.457Z,3.20
2022-12-09T03:35:58.182Z,3.20
2022-12-09T03:38:29.382Z,3.20
2022-12-09T03:41:16.692Z,3.10
2022-12-09T03:43:52.333Z,3.10
2022-12-09T03:46:22.142Z,3.10
2022-12-09T03:48:50.032Z,3.10
2022-12-09T03:51:38.337Z,3.20
2022-12-09T03:54:40.827Z,3.20
2022-12-09T03:57:17.002Z,3.20
2022-12-09T03:59:51.498Z,3.20
2022-12-09T04:02:18.948Z,3.20
2022-12-09T04:04:46.157Z,3.20
2022-12-09T04:07:13.528Z,3.20
2022-12-09T04:09:42.107Z,3.10
2022-12-09T04:12:09.613Z,3.10
2022-12-09T04:14:37.069Z,3.10
2022-12-09T04:17:04.124Z,3.10
2022-12-09T04:19:31.355Z,3.00
2022-12-09T04:22:00.221Z,3.00
2022-12-09T04:24:27.508Z,3.10
2022-12-09T04:26:54.661Z,3.00
2022-12-09T04:29:21.823Z,3.00
2022-12-09T04:31:48.865Z,2.90
2022-12-09T04:34:16.264Z,2.80
2022-12-09T04:36:43.198Z,2.70
2022-12-09T04:39:10.646Z,2.60
2022-12-09T04:41:37.711Z,2.50
2022-12-09T04:44:05.622Z,2.50
2022-12-09T04:46:33.207Z,2.50
2022-12-09T04:49:00.647Z,2.50
2022-12-09T04:51:28.036Z,2.50
2022-12-09T04:53:55.157Z,2.50
2022-12-09T04:56:23.007Z,2.40
2022-12-09T04:58:50.718Z,2.40
2022-12-09T05:01:24.962Z,2.40
2022-12-09T05:03:57.135Z,2.50
2022-12-09T05:06:25.236Z,2.40
2022-12-09T05:08:52.766Z,2.50
2022-12-09T05:11:20.990Z,2.50
2022-12-09T05:13:48.583Z,2.40
2022-12-09T05:16:17.730Z,2.40
2022-12-09T05:18:46.616Z,2.30
2022-12-09T05:21:16.770Z,2.30
2022-12-09T05:23:44.420Z,2.30
2022-12-09T05:26:14.568Z,2.30
2022-12-09T05:28:41.765Z,2.20
2022-12-09T05:31:13.300Z,2.20
2022-12-09T05:33:41.426Z,2.10
2022-12-09T05:36:13.168Z,2.10
2022-12-09T05:38:41.142Z,2.00
2022-12-09T05:41:08.803Z,2.00
2022-12-09T05:43:37.613Z,2.00
2022-12-09T05:46:06.717Z,1.90
2022-12-09T05:48:34.539Z,1.90
2022-12-09T05:51:08.049Z,1.90
2022-12-09T05:53:36.302Z,2.00
2022-12-09T05:56:04.996Z,1.90
2022-12-09T05:58:32.153Z,1.90
2022-12-09T06:01:09.519Z,1.90
2022-12-09T06:03:37.685Z,1.90
2022-12-09T06:06:16.751Z,1.90
2022-12-09T06:08:45.876Z,1.90
2022-12-09T06:11:16.398Z,1.90
2022-12-09T06:13:44.743Z,1.90
2022-12-09T06:16:13.090Z,1.80
2022-12-09T06:18:40.940Z,1.90
2022-12-09T06:21:10.798Z,1.80
2022-12-09T06:23:41.371Z,1.80
2022-12-09T06:26:14.884Z,1.90
2022-12-09T06:28:42.261Z,1.90
2022-12-09T06:31:09.583Z,1.80
2022-12-09T06:33:54.046Z,1.90
2022-12-09T06:36:23.526Z,1.80
2022-12-09T06:38:50.769Z,1.70
2022-12-09T06:41:17.967Z,1.60
2022-12-09T06:43:45.461Z,1.60
2022-12-09T06:46:14.632Z,1.50
2022-12-09T06:48:42.725Z,1.50
2022-12-09T06:51:10.465Z,1.50
2022-12-09T06:53:37.927Z,1.50
2022-12-09T06:56:11.862Z,1.50
2022-12-09T06:58:41.650Z,1.60
2022-12-09T07:01:15.775Z,1.60
2022-12-09T07:03:45.813Z,1.60
2022-12-09T07:06:40.259Z,1.80
2022-12-09T07:09:19.923Z,1.80
2022-12-09T07:11:48.259Z,1.70
2022-12-09T07:14:17.011Z,1.60
2022-12-09T07:16:44.579Z,1.60
2022-12-09T07:19:20.375Z,1.60
2022-12-09T07:21:48.773Z,1.50
2022-12-09T07:24:16.200Z,1.60
2022-12-09T07:26:43.379Z,1.50
2022-12-09T07:29:10.654Z,1.60
2022-12-09T07:31:38.276Z,1.80
2022-12-09T07:34:06.344Z,2.10
2022-12-09T07:36:35.314Z,2.90
2022-12-09T07:39:06.992Z,3.40
2022-12-09T07:41:34.544Z,4.10
2022-12-09T07:44:01.953Z,4.90
2022-12-09T07:46:29.315Z,5.10
2022-12-09T07:48:57.805Z,5.50
2022-12-09T07:51:25.987Z,5.80
2022-12-09T07:53:54.068Z,5.90
2022-12-09T07:56:23.238Z,6.40
2022-12-09T07:58:53.378Z,6.30
2022-12-09T08:01:26.744Z,6.10
2022-12-09T08:03:55.675Z,6.30
2022-12-09T08:06:25.965Z,6.30
2022-12-09T08:08:54.773Z,6.20
2022-12-09T08:11:24.566Z,5.60
2022-12-09T08:13:53.095Z,5.20
2022-12-09T08:16:22.012Z,4.90
2022-12-09T08:18:50.829Z,4.90
2022-12-09T08:21:29.988Z,5.20
2022-12-09T08:23:59.844Z,5.40
2022-12-09T08:26:31.453Z,5.40
2022-12-09T08:28:59.865Z,5.60
2022-12-09T08:31:28.437Z,5.50
2022-12-09T08:33:56.747Z,5.70
2022-12-09T08:36:27.383Z,5.80
2022-12-09T08:38:55.433Z,5.80
2022-12-09T08:41:35.823Z,5.80
2022-12-09T08:44:09.685Z,6.00
2022-12-09T08:46:39.294Z,6.20
2022-12-09T08:49:08.331Z,6.40
2022-12-09T08:51:36.567Z,6.70
2022-12-09T08:54:04.974Z,6.80
2022-12-09T08:56:32.222Z,7.00
2022-12-09T08:58:59.622Z,6.90
2022-12-09T09:01:36.087Z,7.50
2022-12-09T09:04:10.505Z,7.70
2022-12-09T09:06:39.657Z,8.00
2022-12-09T09:09:09.484Z,7.90
2022-12-09T09:11:37.486Z,7.90
2022-12-09T09:14:06.817Z,7.60
2022-12-09T09:16:34.900Z,7.40
2022-12-09T09:19:05.955Z,7.10
2022-12-09T09:21:34.639Z,7.00
2022-12-09T09:24:02.486Z,7.00
2022-12-09T09:26:30.440Z,7.10
2022-12-09T09:28:58.000Z,7.60
2022-12-09T09:31:26.295Z,8.00
2022-12-09T09:33:54.155Z,8.00
2022-12-09T09:36:24.570Z,8.30
2022-12-09T09:38:55.054Z,7.90
2022-12-09T09:41:28.650Z,7.90
2022-12-09T09:43:57.422Z,7.80
2022-12-09T09:46:39.718Z,7.80
2022-12-09T09:49:12.604Z,7.90
2022-12-09T09:51:40.766Z,8.10
2022-12-09T09:54:13.201Z,8.10
2022-12-09T09:56:55.127Z,8.10
2022-12-09T09:59:35.016Z,8.20
2022-12-09T10:02:16.560Z,8.00
2022-12-09T10:04:59.178Z,8.40
2022-12-09T10:07:41.027Z,8.50
2022-12-09T10:10:22.094Z,8.40
2022-12-09T10:13:08.121Z,8.40
2022-12-09T10:16:14.207Z,8.50
2022-12-09T10:19:09.301Z,8.60
2022-12-09T10:21:42.490Z,8.40
2022-12-09T10:24:24.088Z,8.20
2022-12-09T10:27:18.060Z,8.30
2022-12-09T10:30:02.590Z,8.50
2022-12-09T10:32:33.446Z,8.50
2022-12-09T10:35:02.299Z,8.30
2022-12-09T10:37:36.133Z,8.00
2022-12-09T10:40:16.523Z,7.90
2022-12-09T10:43:07.212Z,8.20
2022-12-09T10:46:15.882Z,8.50
2022-12-09T10:48:43.032Z,8.00
2022-12-09T10:51:17.912Z,7.90
2022-12-09T10:53:45.488Z,7.80
2022-12-09T10:56:37.845Z,7.70
2022-12-09T10:59:09.669Z,7.60
2022-12-09T11:01:56.705Z,8.10
2022-12-09T11:04:34.956Z,8.10
2022-12-09T11:07:26.112Z,7.80
2022-12-09T11:10:00.766Z,7.70
2022-12-09T11:12:33.460Z,7.40
2022-12-09T11:15:11.757Z,7.30
2022-12-09T11:17:43.089Z,7.30
2022-12-09T11:20:25.649Z,7.50
2022-12-09T11:23:12.335Z,7.40
2022-12-09T11:26:01.789Z,7.40
2022-12-09T11:28:40.278Z,7.40
2022-12-09T11:31:33.555Z,7.40
2022-12-09T11:34:16.239Z,7.30
2022-12-09T11:36:49.138Z,7.20
2022-12-09T11:39:23.269Z,7.00
2022-12-09T11:42:17.686Z,6.80
2022-12-09T11:44:53.460Z,6.80
2022-12-09T11:48:24.113Z,6.70
2022-12-09T11:50:42.452Z,6.80
2022-12-09T11:53:12.642Z,6.80
2022-12-09T11:55:49.948Z,6.60
2022-12-09T11:58:46.159Z,6.50
2022-12-09T12:01:21.077Z,6.40
2022-12-09T12:04:01.701Z,6.30
2022-12-09T12:07:14.665Z,6.20
2022-12-09T12:09:58.701Z,6.20
2022-12-09T12:12:42.724Z,6.10
2022-12-09T12:15:59.494Z,6.00
2022-12-09T12:18:31.179Z,6.00
2022-12-09T12:21:04.820Z,5.90
2022-12-09T12:23:50.443Z,5.80
2022-12-09T12:26:26.462Z,5.80
2022-12-09T12:29:09.212Z,5.70
2022-12-09T12:32:13.576Z,5.70
2022-12-09T12:34:57.499Z,5.70
2022-12-09T12:37:36.108Z,5.70
2022-12-09T12:40:26.801Z,5.70
2022-12-09T12:43:39.867Z,5.70
2022-12-09T12:46:19.236Z,5.70
2022-12-09T12:49:22.107Z,5.60
2022-12-09T12:51:54.200Z,5.60
2022-12-09T12:54:44.463Z,5.70
2022-12-09T12:57:29.429Z,5.70
2022-12-09T13:00:04.119Z,5.70
2022-12-09T13:03:16.040Z,5.70
2022-12-09T13:05:47.931Z,5.60
2022-12-09T13:08:37.623Z,5.60
2022-12-09T13:11:23.708Z,5.70
2022-12-09T13:14:01.572Z,5.60
2022-12-09T13:16:35.440Z,5.60
2022-12-09T13:19:16.545Z,5.60
2022-12-09T13:21:45.579Z,5.50
2022-12-09T13:24:40.455Z,5.40
2022-12-09T13:27:38.923Z,5.40
2022-12-09T13:30:23.099Z,5.50
2022-12-09T13:33:25.508Z,5.40
2022-12-09T13:36:06.300Z,5.50
2022-12-09T13:38:42.542Z,5.30
2022-12-09T13:41:27.799Z,5.30
2022-12-09T13:43:56.230Z,5.20
2022-12-09T13:46:25.078Z,5.10
2022-12-09T13:48:53.661Z,5.00
2022-12-09T13:51:22.292Z,5.00
2022-12-09T13:54:01.635Z,4.90
2022-12-09T13:56:33.278Z,4.90
2022-12-09T13:59:11.590Z,4.90
2022-12-09T14:01:44.108Z,4.80
2022-12-09T14:04:21.353Z,4.80
2022-12-09T14:06:57.925Z,4.80
2022-12-09T14:09:30.743Z,4.70
2022-12-09T14:12:00.578Z,4.70
2022-12-09T14:14:27.752Z,4.70
2022-12-09T14:16:56.923Z,4.70
2022-12-09T14:19:27.341Z,4.60
2022-12-09T14:22:22.598Z,4.60
2022-12-09T14:24:53.847Z,4.60
2022-12-09T14:27:27.453Z,4.60
2022-12-09T14:30:00.195Z,4.50
2022-12-09T14:32:31.330Z,4.50
2022-12-09T14:35:20.432Z,4.50
2022-12-09T14:38:27.691Z,4.40
2022-12-09T14:41:22.068Z,4.40
2022-12-09T14:44:18.853Z,4.40
2022-12-09T14:46:51.096Z,4.40
2022-12-09T14:49:27.549Z,4.40
2022-12-09T14:52:11.287Z,4.40
2022-12-09T14:54:43.666Z,4.40
2022-12-09T14:57:44.150Z,4.40
2022-12-09T15:00:36.756Z,4.40
2022-12-09T15:03:32.091Z,4.30
2022-12-09T15:06:06.212Z,4.30
2022-12-09T15:08:38.153Z,4.20
2022-12-09T15:11:08.561Z,4.10
2022-12-09T15:13:37.799Z,4.10
2022-12-09T15:16:11.279Z,4.10
2022-12-09T15:18:41.026Z,4.00
2022-12-09T15:21:08.483Z,4.00
2022-12-09T15:23:43.600Z,3.90
2022-12-09T15:26:32.452Z,3.80
2022-12-09T15:29:01.448Z,3.70
2022-12-09T15:31:30.803Z,3.60
2022-12-09T15:34:11.179Z,3.50
2022-12-09T15:36:41.604Z,3.40
2022-12-09T15:39:18.112Z,3.30
2022-12-09T15:42:06.539Z,3.30
2022-12-09T15:45:03.560Z,3.10
2022-12-09T15:47:53.739Z,3.00
2022-12-09T15:50:33.287Z,3.00
2022-12-09T15:53:14.033Z,3.00
2022-12-09T15:56:04.139Z,2.90
2022-12-09T15:58:38.701Z,2.90
2022-12-09T16:01:06.142Z,2.80
2022-12-09T16:03:35.310Z,2.70
2022-12-09T16:06:08.351Z,2.70
2022-12-09T16:08:44.759Z,2.60
2022-12-09T16:11:12.196Z,2.60
2022-12-09T16:14:01.278Z,2.50
2022-12-09T16:16:54.842Z,2.40
2022-12-09T16:19:38.801Z,2.30
2022-12-09T16:22:15.951Z,2.20
2022-12-09T16:25:16.311Z,2.10
2022-12-09T16:27:46.075Z,2.10
2022-12-09T16:30:16.910Z,2.00
2022-12-09T16:32:51.229Z,2.00
2022-12-09T16:35:23.645Z,2.00
2022-12-09T16:37:56.596Z,1.90
2022-12-09T16:40:26.181Z,1.90
2022-12-09T16:43:13.221Z,1.90
2022-12-09T16:45:40.885Z,1.90
2022-12-09T16:48:11.393Z,1.80
2022-12-09T16:50:58.158Z,1.80
2022-12-09T16:53:32.621Z,1.80
2022-12-09T16:56:02.511Z,1.80
2022-12-09T16:58:32.985Z,1.80
2022-12-09T17:01:03.159Z,1.80
2022-12-09T17:03:53.037Z,1.80
2022-12-09T17:06:20.803Z,1.80
2022-12-09T17:08:48.090Z,1.80
2022-12-09T17:11:17.025Z,1.70
2022-12-09T17:13:43.943Z,1.70
2022-12-09T17:16:10.981Z,1.70
2022-12-09T17:18:39.419Z,1.70
2022-12-09T17:21:10.443Z,1.60
2022-12-09T17:23:40.259Z,1.60
2022-12-09T17:26:10.536Z,1.60
2022-12-09T17:28:37.996Z,1.60
2022-12-09T17:31:10.160Z,1.60
2022-12-09T17:33:38.352Z,1.60
2022-12-09T17:36:07.412Z,1.60
2022-12-09T17:38:34.706Z,1.60
2022-12-09T17:41:16.159Z,1.60
2022-12-09T17:43:43.464Z,1.60
2022-12-09T17:46:11.605Z,1.60
2022-12-09T17:48:42.124Z,1.50
2022-12-09T17:51:14.804Z,1.50
2022-12-09T17:53:42.956Z,1.50
2022-12-09T17:56:15.863Z,1.50
2022-12-09T17:58:43.315Z,1.50
2022-12-09T18:01:19.641Z,1.40
2022-12-09T18:03:56.054Z,1.40
2022-12-09T18:06:27.896Z,1.40
2022-12-09T18:08:55.247Z,1.40
2022-12-09T18:11:22.599Z,1.40
2022-12-09T18:13:50.725Z,1.40
2022-12-09T18:16:18.865Z,1.40
2022-12-09T18:18:46.307Z,1.40
2022-12-09T18:21:15.889Z,1.40
2022-12-09T18:23:43.915Z,1.40
2022-12-09T18:26:15.998Z,1.40
2022-12-09T18:28:43.619Z,1.40
2022-12-09T18:31:14.337Z,1.40
2022-12-09T18:33:42.243Z,1.40
2022-12-09T18:36:10.997Z,1.40
2022-12-09T18:38:39.390Z,1.40
2022-12-09T18:41:29.221Z,1.40
2022-12-09T18:44:02.602Z,1.40
2022-12-09T18:46:33.358Z,1.40
2022-12-09T18:49:04.905Z,1.40
2022-12-09T18:51:32.944Z,1.40
2022-12-09T18:54:01.707Z,1.30
2022-12-09T18:56:29.032Z,1.40
2022-12-09T18:59:06.439Z,1.40
2022-12-09T19:01:39.352Z,1.30
2022-12-09T19:04:10.381Z,1.40
2022-12-09T19:06:39.694Z,1.30
2022-12-09T19:09:12.760Z,1.30
2022-12-09T19:11:41.664Z,1.30
2022-12-09T19:14:09.663Z,1.40
2022-12-09T19:16:37.990Z,1.30
2022-12-09T19:19:09.629Z,1.40
2022-12-09T19:21:37.580Z,1.40
2022-12-09T19:24:04.930Z,1.40
2022-12-09T19:26:34.459Z,1.40
2022-12-09T19:29:07.815Z,1.40
2022-12-09T19:31:38.040Z,1.40
2022-12-09T19:34:15.802Z,1.40
2022-12-09T19:36:44.007Z,1.40
2022-12-09T19:39:12.671Z,1.40
2022-12-09T19:41:40.585Z,1.40
2022-12-09T19:44:08.671Z,1.40
2022-12-09T19:46:36.744Z,1.40
2022-12-09T19:49:03.985Z,1.50
2022-12-09T19:51:31.090Z,1.40
2022-12-09T19:53:59.892Z,1.40
2022-12-09T19:56:27.988Z,1.50
2022-12-09T19:58:55.202Z,1.50
2022-12-09T20:01:25.065Z,1.50
2022-12-09T20:04:08.922Z,1.50
2022-12-09T20:06:46.999Z,1.50
2022-12-09T20:09:18.387Z,1.50
2022-12-09T20:11:45.768Z,1.50
2022-12-09T20:14:14.167Z,1.50
2022-12-09T20:16:41.576Z,1.50
2022-12-09T20:19:10.188Z,1.60
2022-12-09T20:21:38.151Z,1.50
2022-12-09T20:24:05.978Z,1.50
2022-12-09T20:26:35.311Z,1.50
2022-12-09T20:29:06.269Z,1.60
2022-12-09T20:31:35.223Z,1.60
2022-12-09T20:34:11.341Z,1.50
2022-12-09T20:36:40.608Z,1.50
2022-12-09T20:39:12.689Z,1.60
2022-12-09T20:41:41.922Z,1.60
2022-12-09T20:44:10.871Z,1.60
2022-12-09T20:46:40.013Z,1.60
2022-12-09T20:49:07.412Z,1.60
2022-12-09T20:51:41.150Z,1.60
2022-12-09T20:54:16.189Z,1.60
2022-12-09T20:56:44.362Z,1.50
2022-12-09T20:59:13.647Z,1.50
2022-12-09T21:01:41.672Z,1.50
2022-12-09T21:04:09.022Z,1.50
2022-12-09T21:06:39.097Z,1.50
2022-12-09T21:09:09.848Z,1.60
2022-12-09T21:11:37.988Z,1.50
2022-12-09T21:14:06.867Z,1.60
2022-12-09T21:16:37.751Z,1.50
2022-12-09T21:19:07.241Z,1.50
2022-12-09T21:21:35.829Z,1.50
2022-12-09T21:24:03.792Z,1.50
2022-12-09T21:26:30.764Z,1.50
2022-12-09T21:28:59.927Z,1.50
2022-12-09T21:31:30.618Z,1.50
2022-12-09T21:34:18.485Z,1.50
2022-12-09T21:36:45.750Z,1.50
2022-12-09T21:39:15.022Z,1.50
2022-12-09T21:41:43.945Z,1.50
2022-12-09T21:44:18.568Z,1.50
2022-12-09T21:46:46.259Z,1.50
2022-12-09T21:49:14.040Z,1.50
2022-12-09T21:51:41.184Z,1.40
2022-12-09T21:54:08.205Z,1.50
2022-12-09T21:56:36.817Z,1.50
2022-12-09T21:59:06.021Z,1.50
2022-12-09T22:01:38.506Z,1.50
2022-12-09T22:04:08.272Z,1.50
2022-12-09T22:06:35.754Z,1.50
2022-12-09T22:09:05.566Z,1.50
2022-12-09T22:11:35.832Z,1.50
2022-12-09T22:14:03.285Z,1.50
2022-12-09T22:16:43.638Z,1.50
2022-12-09T22:19:14.992Z,1.50
2022-12-09T22:21:42.245Z,1.40
2022-12-09T22:24:10.481Z,1.50
2022-12-09T22:26:37.530Z,1.50
2022-12-09T22:29:06.670Z,1.50
2022-12-09T22:31:37.026Z,1.40
2022-12-09T22:34:11.047Z,1.40
2022-12-09T22:36:38.563Z,1.40
2022-12-09T22:39:09.146Z,1.40
2022-12-09T22:41:36.241Z,1.40
2022-12-09T22:44:03.706Z,1.40
2022-12-09T22:46:33.036Z,1.40
2022-12-09T22:49:04.816Z,1.50
2022-12-09T22:51:34.667Z,1.40
2022-12-09T22:54:04.633Z,1.40
2022-12-09T22:56:32.306Z,1.40
2022-12-09T22:59:00.317Z,1.50
2022-12-09T23:01:32.862Z,1.40
2022-12-09T23:04:01.427Z,1.40
2022-12-09T23:06:32.619Z,1.50
2022-12-09T23:08:59.855Z,1.50
2022-12-09T23:11:28.209Z,1.50
2022-12-09T23:13:55.904Z,1.50
2022-12-09T23:16:24.981Z,1.50
2022-12-09T23:18:54.572Z,1.50
2022-12-09T23:21:24.491Z,1.50
2022-12-09T23:23:57.257Z,1.50
2022-12-09T23:26:26.301Z,1.50
2022-12-09T23:28:55.864Z,1.50
2022-12-09T23:31:25.426Z,1.50
2022-12-09T23:33:53.949Z,1.50
2022-12-09T23:36:45.852Z,1.50
2022-12-09T23:39:16.048Z,1.50
2022-12-09T23:41:44.851Z,1.60
2022-12-09T23:44:14.760Z,1.60
2022-12-09T23:46:42.178Z,1.60
2022-12-09T23:49:09.388Z,1.60
2022-12-09T23:51:39.898Z,1.60
2022-12-09T23:54:08.678Z,1.60
2022-12-09T23:56:39.058Z,1.60
2022-12-09T23:59:09.125Z,1.60
